Stormwatcher's Retreat Logo




                  Temp     Hi    Low   Out    Dew  Wind  Wind   Wind    Hi    Hi   Wind   Heat    THW   THSW                Rain  Solar   Solar Hi Solar   UV    UV    Hi     Heat    Cool    In     In    In     In     In   In Air          Wind  Wind    ISS   Arc.
  Date    Time     Out   Temp   Temp   Hum    Pt. Speed   Dir    Run Speed   Dir  Chill  Index  Index  Index   Bar    Rain  Rate   Rad.  Energy    Rad.  Index  Dose   UV     D-D     D-D    Temp   Hum    Dew   Heat    EMC Density     ET   Samp   Tx   Recept  Int.
------------------------------------------------------------------------------------------------------------------------------------------------------------------------------------------------------------------------------------------------------------------------
 8/17/22 12:10a   57.2   58.2   57.2    96   56.1   3.0   NNE   0.50   5.0   NNE   57.2   57.5   57.5   55.0  29.973  0.00  0.00     0     0.00      0     0.0  0.00   0.0   0.054   0.000   72.9    62   59.1   73.4  11.29  .0734    0.000   202    7    100.0   10 
 8/17/22 12:20a   57.6   57.6   57.1    96   56.5   4.0   NNE   0.67   7.0   NNE   57.6   57.9   57.9   55.4  29.971  0.00  0.00     0     0.00      0     0.0  0.00   0.0   0.051   0.000   72.9    62   59.1   73.4  11.29  .0734    0.000   204    7    100.0   10 
 8/17/22 12:30a   58.0   58.1   57.7    96   56.9   4.0   NNE   0.67   9.0   NNE   58.0   58.3   58.3   55.8  29.969  0.00  0.00     0     0.00      0     0.0  0.00   0.0   0.049   0.000   72.9    62   59.1   73.4  11.29  .0734    0.000   201    7    100.0   10 
 8/17/22 12:40a   58.0   58.0   57.9    96   56.9   4.0   NNE   0.67   9.0    NE   58.0   58.3   58.3   55.8  29.966  0.00  0.00     0     0.00      0     0.0  0.00   0.0   0.049   0.000   72.8    62   59.0   73.2  11.29  .0734    0.000   204    7    100.0   10 
 8/17/22 12:50a   58.0   58.1   58.0    97   57.2   4.0    NE   0.67   9.0    NE   58.0   58.3   58.3   55.9  29.966  0.00  0.00     0     0.00      0     0.0  0.00   0.0   0.049   0.000   72.8    62   59.0   73.2  11.29  .0734    0.000   205    7    100.0   10 
 8/17/22  1:00a   58.0   58.1   57.9    96   56.9   3.0   NNE   0.50   6.0   NNE   58.0   58.3   58.3   55.8  29.965  0.00  0.00     0     0.00      0     0.0  0.00   0.0   0.049   0.000   72.7    62   58.9   73.1  11.30  .0734    0.000   204    7    100.0   10 
 8/17/22  1:10a   57.7   58.0   57.7    96   56.6   4.0   NNE   0.67   6.0   NNE   57.7   58.0   58.0   55.5  29.965  0.00  0.00     0     0.00      0     0.0  0.00   0.0   0.051   0.000   72.7    62   58.9   73.1  11.30  .0734    0.000   204    7    100.0   10 
 8/17/22  1:20a   57.4   57.8   57.4    97   56.6   4.0   NNE   0.67   7.0   NNE   57.4   57.7   57.7   55.2  29.963  0.00  0.00     0     0.00      0     0.0  0.00   0.0   0.053   0.000   72.7    62   58.9   73.1  11.30  .0734    0.000   204    7    100.0   10 
 8/17/22  1:30a   57.2   57.4   57.2    97   56.4   4.0   NNE   0.67   7.0   NNE   57.2   57.5   57.5   55.0  29.962  0.00  0.00     0     0.00      0     0.0  0.00   0.0   0.054   0.000   72.7    62   58.9   73.1  11.30  .0734    0.000   205    7    100.0   10 
 8/17/22  1:40a   57.6   57.6   57.2    97   56.8   5.0    NE   0.83  11.0   NNW   57.1   57.9   57.4   54.9  29.961  0.00  0.00     0     0.00      0     0.0  0.00   0.0   0.051   0.000   72.6    62   58.8   72.9  11.30  .0734    0.000   201    7    100.0   10 
 8/17/22  1:50a   57.7   57.7   57.6    97   56.9   5.0    NE   0.83  10.0    NE   57.2   58.0   57.5   55.0  29.961  0.00  0.00     0     0.00      0     0.0  0.00   0.0   0.051   0.000   72.5    62   58.7   72.8  11.30  .0734    0.000   204    7    100.0   10 
 8/17/22  2:00a   57.6   57.7   57.6    97   56.8   4.0    NE   0.67   9.0   ENE   57.6   57.9   57.9   55.4  29.961  0.00  0.00     0     0.00      0     0.0  0.00   0.0   0.051   0.000   72.4    62   58.6   72.6  11.30  .0734    0.000   203    7    100.0   10 
 8/17/22  2:10a   57.6   57.7   57.6    97   56.8   4.0   NNE   0.67   8.0     N   57.6   57.9   57.9   55.4  29.965  0.00  0.00     0     0.00      0     0.0  0.00   0.0   0.051   0.000   72.4    62   58.6   72.6  11.30  .0735    0.000   201    7    100.0   10 
 8/17/22  2:20a   57.3   57.6   57.3    97   56.5   4.0   NNE   0.67   8.0   NNE   57.3   57.6   57.6   55.1  29.959  0.00  0.00     0     0.00      0     0.0  0.00   0.0   0.053   0.000   72.4    62   58.6   72.6  11.30  .0734    0.000   203    7    100.0   10 
 8/17/22  2:30a   57.0   57.3   57.0    97   56.2   4.0   NNE   0.67   9.0    NE   57.0   57.3   57.3   54.8  29.959  0.00  0.00     0     0.00      0     0.0  0.00   0.0   0.056   0.000   72.4    62   58.6   72.6  11.30  .0734    0.000   203    7    100.0   10 
 8/17/22  2:40a   56.6   57.0   56.6    97   55.8   3.0   NNE   0.50   5.0   NNE   56.6   56.9   56.9   54.4  29.962  0.00  0.00     0     0.00      0     0.0  0.00   0.0   0.058   0.000   72.4    62   58.6   72.6  11.30  .0735    0.000   202    7    100.0   10 
 8/17/22  2:50a   56.2   56.6   56.2    97   55.4   3.0   NNE   0.50   7.0   NNE   56.2   56.5   56.5   54.0  29.967  0.00  0.00     0     0.00      0     0.0  0.00   0.0   0.061   0.000   72.4    62   58.6   72.6  11.30  .0735    0.000   202    7    100.0   10 
 8/17/22  3:00a   56.5   56.5   56.2    98   55.9   3.0    NE   0.50   7.0   NNE   56.5   56.8   56.8   54.3  29.965  0.00  0.00     0     0.00      0     0.0  0.00   0.0   0.059   0.000   72.5    62   58.7   72.8  11.30  .0734    0.000   201    7    100.0   10 
 8/17/22  3:10a   56.6   56.7   56.5    98   56.0   3.0   NNE   0.50   4.0   ENE   56.6   56.9   56.9   54.4  29.964  0.00  0.00     0     0.00      0     0.0  0.00   0.0   0.058   0.000   72.5    62   58.7   72.8  11.30  .0734    0.000   202    7    100.0   10 
 8/17/22  3:20a   56.4   56.7   56.4    98   55.8   2.0    NE   0.33   4.0     N   56.4   56.7   56.7   54.2  29.965  0.00  0.00     0     0.00      0     0.0  0.00   0.0   0.060   0.000   72.5    62   58.7   72.8  11.30  .0734    0.000   203    7    100.0   10 
 8/17/22  3:30a   56.0   56.4   56.0    98   55.4   4.0   NNE   0.67   6.0    NE   55.8   56.3   56.1   53.6  29.971  0.00  0.00     0     0.00      0     0.0  0.00   0.0   0.063   0.000   72.5    62   58.7   72.8  11.30  .0735    0.000   201    7    100.0   10 
 8/17/22  3:40a   56.1   56.1   56.0    98   55.5   2.0    NE   0.33   4.0     N   56.1   56.4   56.4   53.9  29.971  0.00  0.00     0     0.00      0     0.0  0.00   0.0   0.062   0.000   72.4    62   58.6   72.6  11.30  .0735    0.000   203    7    100.0   10 
 8/17/22  3:50a   56.3   56.3   56.1    98   55.7   2.0    NE   0.33   4.0   ENE   56.3   56.6   56.6   54.1  29.969  0.00  0.00     0     0.00      0     0.0  0.00   0.0   0.060   0.000   72.4    62   58.6   72.6  11.30  .0735    0.000   202    7    100.0   10 
 8/17/22  4:00a   56.0   56.3   56.0    98   55.4   3.0   NNE   0.50   7.0   NNE   56.0   56.3   56.3   53.8  29.968  0.00  0.00     0     0.00      0     0.0  0.00   0.0   0.063   0.000   72.4    62   58.6   72.6  11.30  .0735    0.000   204    7    100.0   10 
 8/17/22  4:10a   55.6   56.0   55.6    98   55.0   4.0   NNE   0.67   8.0     N   55.3   55.9   55.6   53.1  29.968  0.00  0.00     0     0.00      0     0.0  0.00   0.0   0.065   0.000   72.3    62   58.5   72.5  11.30  .0735    0.000   199    7    100.0   10 
 8/17/22  4:20a   55.5   55.6   55.4    98   54.9   4.0   NNE   0.67   8.0     N   55.2   55.8   55.5   52.9  29.968  0.00  0.00     0     0.00      0     0.0  0.00   0.0   0.066   0.000   72.3    62   58.5   72.5  11.30  .0735    0.000   202    7    100.0   10 
 8/17/22  4:30a   55.6   55.6   55.5    98   55.0   3.0   NNE   0.50   7.0   NNE   55.6   55.9   55.9   53.4  29.962  0.00  0.00     0     0.00      0     0.0  0.00   0.0   0.065   0.000   72.3    62   58.5   72.5  11.30  .0735    0.000   203    7    100.0   10 
 8/17/22  4:40a   55.5   55.6   55.5    98   54.9   3.0    NE   0.50   7.0   NNE   55.5   55.8   55.8   53.2  29.962  0.00  0.00     0     0.00      0     0.0  0.00   0.0   0.066   0.000   72.2    61   58.0   72.3  11.16  .0735    0.000   204    7    100.0   10 
 8/17/22  4:50a   55.3   55.5   55.3    98   54.7   3.0    NE   0.50   5.0   ENE   55.3   55.6   55.6   53.0  29.959  0.00  0.00     0     0.00      0     0.0  0.00   0.0   0.067   0.000   72.2    61   58.0   72.3  11.16  .0735    0.000   203    7    100.0   10 
 8/17/22  5:00a   55.1   55.3   55.0    98   54.5   3.0    NE   0.50   7.0   NNE   55.1   55.4   55.4   52.8  29.959  0.00  0.00     0     0.00      0     0.0  0.00   0.0   0.069   0.000   72.2    61   58.0   72.3  11.16  .0735    0.000   201    7    100.0   10 
 8/17/22  5:10a   55.0   55.1   55.0    98   54.4   4.0   NNE   0.67   8.0   NNE   54.6   55.3   54.9   52.3  29.960  0.00  0.00     0     0.00      0     0.0  0.00   0.0   0.069   0.000   72.1    61   57.9   72.1  11.17  .0735    0.000   202    7    100.0   10 
 8/17/22  5:20a   55.2   55.2   55.0    99   54.9   4.0    NE   0.67   7.0     N   54.8   55.6   55.2   52.6  29.957  0.00  0.00     0     0.00      0     0.0  0.00   0.0   0.068   0.000   72.0    61   57.8   72.0  11.17  .0735    0.000   203    7    100.0   10 
 8/17/22  5:30a   55.6   55.6   55.1    99   55.3   3.0    NE   0.50   5.0    NE   55.6   56.0   56.0   53.5  29.956  0.00  0.00     0     0.00      0     0.0  0.00   0.0   0.065   0.000   72.0    61   57.8   72.0  11.17  .0735    0.000   204    7    100.0   10 
 8/17/22  5:40a   55.6   55.8   55.6    99   55.3   3.0   NNE   0.50   7.0     N   55.6   56.0   56.0   53.5  29.953  0.00  0.00     0     0.00      0     0.0  0.00   0.0   0.065   0.000   72.0    62   58.3   72.1  11.31  .0735    0.000   203    7    100.0   10 
 8/17/22  5:50a   55.4   55.6   55.4    98   54.8   4.0   NNE   0.67  10.0     N   55.1   55.7   55.4   52.8  29.957  0.00  0.00     0     0.00      0     0.0  0.00   0.0   0.067   0.000   72.1    62   58.4   72.2  11.31  .0735    0.000   203    7    100.0   10 
 8/17/22  6:00a   55.4   55.4   55.3    99   55.1   4.0    NE   0.67   8.0   NNE   55.1   55.8   55.5   53.0  29.958  0.00  0.00     0     0.00      0     0.0  0.00   0.0   0.067   0.000   72.1    61   57.9   72.1  11.17  .0735    0.000   203    7    100.0   10 
 8/17/22  6:10a   55.5   55.5   55.3    99   55.2   3.0   NNE   0.50   6.0   NNE   55.5   55.9   55.9   53.4  29.955  0.00  0.00     0     0.00      0     0.0  0.00   0.0   0.066   0.000   72.1    61   57.9   72.1  11.17  .0735    0.000   201    7    100.0   10 
 8/17/22  6:20a   55.8   55.8   55.4    99   55.5   4.0   NNE   0.67   8.0   NNE   55.6   56.2   56.0   53.5  29.956  0.00  0.00     0     0.00      0     0.0  0.00   0.0   0.064   0.000   72.2    61   58.0   72.3  11.16  .0735    0.000   203    7    100.0   10 
 8/17/22  6:30a   55.4   55.8   55.4    98   54.8   3.0   NNE   0.50   5.0    NE   55.4   55.7   55.7   53.2  29.955  0.00  0.00     5     0.07      7     0.0  0.00   0.0   0.067   0.000   72.2    61   58.0   72.3  11.16  .0735    0.000   205    7    100.0   10 
 8/17/22  6:40a   54.9   55.4   54.9    99   54.6   3.0    NE   0.50   5.0   NNE   54.9   55.3   55.3   53.0  29.955  0.00  0.00    10     0.14     12     0.0  0.00   0.0   0.070   0.000   72.2    61   58.0   72.3  11.16  .0735    0.000   203    7    100.0   10 
 8/17/22  6:50a   54.7   55.0   54.7    99   54.4   3.0   NNE   0.50   5.0   NNE   54.7   55.1   55.1   52.9  29.953  0.00  0.00    15     0.22     18     0.0  0.00   0.0   0.072   0.000   72.3    61   58.1   72.4  11.16  .0735    0.000   203    7    100.0   10 
 8/17/22  7:00a   54.8   54.8   54.7    99   54.5   3.0    NE   0.50   9.0     N   54.8   55.2   55.2   54.3  29.956  0.00  0.00    19     0.27     21     0.0  0.00   0.0   0.071   0.000   72.3    61   58.1   72.4  11.16  .0735    0.000   202    7    100.0   10 
 8/17/22  7:10a   54.5   54.8   54.5    99   54.2   4.0   NNE   0.67   9.0   NNE   54.1   54.9   54.5   53.8  29.954  0.00  0.00    24     0.34     26     0.0  0.00   0.0   0.073   0.000   72.3    61   58.1   72.4  11.16  .0735    0.000   204    7    100.0   10 
 8/17/22  7:20a   54.4   54.6   54.4    99   54.1   4.0   NNE   0.67   9.0   NNE   53.9   54.8   54.3   53.8  29.956  0.00  0.00    29     0.42     32     0.0  0.00   0.0   0.074   0.000   72.3    61   58.1   72.4  11.16  .0735    0.000   202    7    100.0   10 
 8/17/22  7:30a   54.4   54.5   54.4    99   54.1   5.0   NNE   0.83   9.0   NNE   53.4   54.8   53.8   53.5  29.957  0.00  0.00    35     0.50     42     0.0  0.00   0.0   0.074   0.000   72.4    61   58.2   72.6  11.15  .0735    0.000   201    7    100.0   10 
 8/17/22  7:40a   54.5   54.6   54.4    99   54.2   5.0   NNE   0.83  10.0   NNE   53.5   54.9   53.9   54.4  29.954  0.00  0.00    55     0.79     70     0.0  0.00   0.0   0.073   0.000   72.4    61   58.2   72.6  11.15  .0735    0.000   203    7    100.0   10 
 8/17/22  7:50a   54.7   54.8   54.5    99   54.4   5.0   NNE   0.83  10.0   NNE   53.7   55.1   54.1   56.1  29.954  0.00  0.00    93     1.33    107     0.0  0.00   0.0   0.072   0.000   72.5    61   58.3   72.7  11.15  .0734    0.000   205    7    100.0   10 
 8/17/22  8:00a   55.0   55.1   54.7    99   54.7   5.0   NNE   0.83  10.0   NNE   54.1   55.4   54.5   58.0  29.949  0.00  0.00   136     1.95    167     0.0  0.00   0.0   0.069   0.000   72.5    61   58.3   72.7  11.15  .0734    0.001   202    7    100.0   10 
 8/17/22  8:10a   55.1   55.2   55.0    99   54.8   6.0   NNE   1.00  10.0   NNE   53.7   55.5   54.1   57.4  29.942  0.00  0.00   135     1.94    160     0.5  0.04   0.5   0.069   0.000   72.5    61   58.3   72.7  11.15  .0734    0.000   203    7    100.0   10 
 8/17/22  8:20a   55.2   55.2   55.1    99   54.9   6.0   NNE   1.00  10.0    NE   53.8   55.6   54.2   58.2  29.943  0.00  0.00   162     2.32    199     0.6  0.04   0.6   0.068   0.000   72.6    61   58.4   72.9  11.15  .0734    0.000   203    7    100.0   10 
 8/17/22  8:30a   54.9   55.3   54.9    99   54.6   6.0   NNE   1.00  11.0   NNE   53.5   55.3   53.9   58.8  29.941  0.00  0.00   197     2.82    223     0.7  0.05   0.7   0.070   0.000   72.6    61   58.4   72.9  11.15  .0734    0.000   203    7    100.0   10 
 8/17/22  8:40a   55.1   55.1   54.8    99   54.8   5.0   NNE   0.83   8.0   NNE   54.2   55.5   54.6   60.3  29.938  0.00  0.00   227     3.25    276     0.8  0.06   0.9   0.069   0.000   72.6    61   58.4   72.9  11.15  .0734    0.000   203    7    100.0   10 
 8/17/22  8:50a   55.0   55.1   54.8    99   54.7   6.0   NNE   1.00  10.0   NNE   53.6   55.4   54.0   61.1  29.939  0.00  0.00   289     4.14    348     1.0  0.07   1.1   0.069   0.000   72.7    60   58.0   72.9  11.00  .0734    0.000   202    7    100.0   10 
 8/17/22  9:00a   54.8   55.1   54.8    99   54.5   7.0   NNE   1.17  10.0   NNE   53.0   55.2   53.4   61.1  29.938  0.00  0.00   331     4.74    362     1.2  0.09   1.3   0.071   0.000   72.7    60   58.0   72.9  11.00  .0734    0.004   202    7    100.0   10 
 8/17/22  9:10a   55.4   55.5   54.9    99   55.1   6.0   NNE   1.00  10.0   NNE   54.1   55.8   54.5   62.9  29.942  0.00  0.00   364     5.22    411     1.4  0.10   1.4   0.067   0.000   72.7    60   58.0   72.9  11.00  .0734    0.000   204    7    100.0   10 
 8/17/22  9:20a   55.6   55.6   55.3    99   55.3   7.0   NNE   1.17  11.0   NNE   53.9   56.0   54.3   63.7  29.941  0.00  0.00   438     6.28    475     1.6  0.11   1.7   0.065   0.000   72.7    60   58.0   72.9  11.00  .0734    0.000   200    7    100.0   10 
 8/17/22  9:30a   55.7   55.7   55.5    99   55.4   7.0   NNE   1.17  12.0   NNE   54.0   56.1   54.4   64.0  29.941  0.00  0.00   466     6.68    489     1.8  0.13   1.8   0.065   0.000   72.7    60   58.0   72.9  11.00  .0734    0.000   202    7    100.0   10 
 8/17/22  9:40a   56.0   56.0   55.4   100   56.0   8.0   NNE   1.33  13.0   NNE   53.7   56.4   54.1   63.1  29.938  0.00  0.00   458     6.57    519     2.0  0.14   2.2   0.063   0.000   72.7    60   58.0   72.9  11.00  .0734    0.000   205    7    100.0   10 
 8/17/22  9:50a   56.6   56.7   56.1    99   56.3   7.0   NNE   1.17  13.0   NNE   55.1   57.0   55.5   65.7  29.936  0.00  0.00   534     7.65    547     2.3  0.16   2.4   0.058   0.000   72.7    60   58.0   72.9  11.00  .0734    0.000   201    7    100.0   10 
 8/17/22 10:00a   56.3   56.7   56.3    99   56.0   7.0   NNE   1.17  12.0    NE   54.8   56.7   55.2   65.5  29.933  0.00  0.00   557     7.98    568     2.5  0.18   2.6   0.060   0.000   72.6    60   57.9   72.8  11.00  .0734    0.009   204    7    100.0   10 
 8/17/22 10:10a   56.9   56.9   56.0    99   56.6   8.0   NNE   1.33  13.0     N   54.8   57.3   55.2   65.3  29.937  0.00  0.00   583     8.36    587     2.8  0.20   2.9   0.056   0.000   72.6    59   57.4   72.7  10.85  .0734    0.000   204    7    100.0   10 
 8/17/22 10:20a   56.7   56.9   56.7    98   56.1  10.0   NNE   1.67  14.0   NNE   53.1   57.0   53.4   62.8  29.939  0.00  0.00   608     8.72    621     3.1  0.22   3.2   0.058   0.000   72.6    59   57.4   72.7  10.85  .0734    0.000   202    7    100.0   10 
 8/17/22 10:30a   56.8   57.0   56.6    98   56.2   8.0   NNE   1.33  12.0     N   54.7   57.1   55.0   65.2  29.944  0.00  0.00   630     9.03    640     3.4  0.24   3.5   0.057   0.000   72.6    59   57.4   72.7  10.85  .0734    0.000   204    7    100.0   10 
 8/17/22 10:40a   56.7   56.8   56.6    98   56.1   6.0     N   1.00  10.0   NNW   55.6   57.0   55.9   66.8  29.952  0.00  0.00   644     9.23    657     3.6  0.26   3.6   0.058   0.000   72.6    59   57.4   72.7  10.85  .0735    0.000   203    7    100.0   10 
 8/17/22 10:50a   56.7   56.9   56.7    98   56.1   4.0     N   0.67   7.0     N   56.6   57.0   56.9   67.9  29.954  0.00  0.00   671     9.62    680     3.9  0.28   4.0   0.058   0.000   72.6    59   57.4   72.7  10.85  .0735    0.000   203    7    100.0   10 
 8/17/22 11:00a   57.2   57.2   56.6    98   56.6   5.0     N   0.83   8.0     N   56.6   57.5   56.9   68.0  29.952  0.00  0.00   693     9.93    701     4.1  0.29   4.3   0.054   0.000   72.7    59   57.5   72.9  10.84  .0734    0.013   205    7    100.0   10 
 8/17/22 11:10a   57.4   57.4   57.1    97   56.6   6.0     N   1.00  10.0    NE   56.5   57.7   56.8   67.9  29.949  0.00  0.00   711    10.19    721     4.4  0.31   4.5   0.053   0.000   72.7    59   57.5   72.9  10.84  .0734    0.000   203    7    100.0   10 
 8/17/22 11:20a   57.2   57.5   57.2    97   56.4   8.0     N   1.33  11.0     N   55.1   57.5   55.4   65.9  29.950  0.00  0.00   727    10.42    735     4.6  0.33   4.8   0.054   0.000   72.7    59   57.5   72.9  10.84  .0734    0.000   203    7    100.0   10 
 8/17/22 11:30a   57.5   57.5   57.2    97   56.7   8.0     N   1.33  13.0   NNE   55.5   57.8   55.8   66.3  29.942  0.00  0.00   743    10.65    751     4.9  0.35   4.9   0.052   0.000   72.7    59   57.5   72.9  10.84  .0734    0.000   203    7    100.0   10 
 8/17/22 11:40a   58.8   58.8   57.6    97   58.0   8.0   NNE   1.33  13.0    NE   57.1   59.2   57.5   68.1  29.942  0.00  0.00   765    10.97    780     5.1  0.36   5.2   0.043   0.000   72.6    58   57.0   72.6  10.65  .0734    0.000   205    7    100.0   10 
 8/17/22 11:50a   59.0   59.2   58.8    95   57.6   9.0   NNE   1.50  14.0   NNE   56.5   59.4   56.9   67.0  29.942  0.00  0.00   713    10.22    823     5.1  0.36   5.4   0.042   0.000   72.5    58   56.9   72.5  10.65  .0735    0.000   201    7    100.0   10 
 8/17/22 12:00p   59.4   59.5   58.9    94   57.7  11.0   NNE   1.83  16.0    NE   55.6   59.8   56.0   65.3  29.932  0.00  0.00   942    13.50    954     5.6  0.40   6.0   0.039   0.000   72.4    59   57.3   72.4  10.85  .0734    0.015   203    7    100.0   10 
 8/17/22 12:10p   59.5   59.9   59.3    93   57.5  10.0   NNE   1.67  17.0     N   56.4   59.8   56.7   65.9  29.938  0.00  0.00   921    13.20    986     6.0  0.43   6.2   0.038   0.000   72.5    59   57.4   72.6  10.85  .0734    0.000   203    7    100.0   10 
 8/17/22 12:20p   59.9   59.9   59.1    95   58.5  10.0   NNE   1.67  16.0   NNE   56.9   60.3   57.3   67.2  29.939  0.00  0.00   828    11.87    877     5.8  0.41   5.9   0.035   0.000   72.6    58   57.0   72.6  10.65  .0734    0.000   203    7    100.0   10 
 8/17/22 12:30p   60.9   60.9   59.9    94   59.2  10.0    NE   1.67  15.0    NE   58.0   61.4   58.5   68.4  29.935  0.00  0.00   850    12.18    865     6.1  0.44   6.2   0.028   0.000   72.4    58   56.8   72.3  10.65  .0735    0.000   203    7    100.0   10 
 8/17/22 12:40p   60.7   61.4   60.7    93   58.7  10.0   NNE   1.67  17.0   NNE   57.8   61.1   58.2   68.0  29.938  0.00  0.00   853    12.23    918     5.7  0.41   6.1   0.030   0.000   72.3    59   57.2   72.3  10.86  .0735    0.000   203    7    100.0   10 
 8/17/22 12:50p   59.5   60.7   59.5    93   57.5  10.0    NE   1.67  17.0   NNE   56.4   59.8   56.7   59.8  29.930  0.00  0.00   218     3.13    251     3.0  0.21   3.3   0.038   0.000   72.2    59   57.1   72.1  10.86  .0735    0.000   204    7    100.0   10 
 8/17/22  1:00p   60.9   60.9   59.4    95   59.5   9.0   NNE   1.50  16.0    NE   58.8   61.4   59.3   69.5  29.932  0.00  0.00   715    10.25   1027     5.7  0.41   7.0   0.028   0.000   72.1    59   57.0   72.0  10.87  .0735    0.015   204    7    100.0   10 
 8/17/22  1:10p   61.7   61.8   60.9    93   59.7  11.0   NNE   1.83  19.0    NE   58.3   62.3   58.9   67.6  29.931  0.00  0.00   930    13.33    981     6.4  0.46   6.8   0.023   0.000   72.2    59   57.1   72.1  10.86  .0735    0.000   204    7    100.0   10 
 8/17/22  1:20p   61.9   62.0   61.7    92   59.5  11.0   NNE   1.83  19.0   NNE   58.5   62.5   59.1   68.7  29.933  0.00  0.00   843    12.08    865     6.5  0.46   6.6   0.022   0.000   72.1    59   57.0   72.0  10.87  .0735    0.000   203    7    100.0   10 
 8/17/22  1:30p   62.0   62.1   61.9    92   59.6   9.0   NNE   1.50  15.0   NNE   60.0   62.6   60.6   70.9  29.935  0.00  0.00   848    12.16    904     6.1  0.44   6.5   0.021   0.000   72.2    60   57.5   72.2  11.01  .0735    0.000   204    7    100.0   10 
 8/17/22  1:40p   62.4   62.4   61.9    93   60.3   9.0    NE   1.50  16.0   NNE   60.5   63.1   61.2   71.7  29.936  0.00  0.00   785    11.25    895     5.6  0.40   6.4   0.018   0.000   72.4    60   57.7   72.5  11.00  .0734    0.000   204    7    100.0   10 
 8/17/22  1:50p   62.8   62.9   62.3    92   60.4   9.0    NE   1.50  15.0    NE   61.0   63.5   61.7   71.7  29.938  0.00  0.00   685     9.82    737     5.8  0.41   6.0   0.015   0.000   72.6    60   57.9   72.8  11.00  .0734    0.000   203    7    100.0   10 
 8/17/22  2:00p   62.9   63.2   62.8    92   60.5   9.0   NNE   1.50  15.0   NNE   61.1   63.6   61.8   72.1  29.936  0.00  0.00   720    10.32    749     5.3  0.38   6.0   0.015   0.000   72.8    60   58.1   73.1  10.99  .0734    0.017   203    7    100.0   10 
 8/17/22  2:10p   62.6   62.9   62.3    93   60.5   7.0   NNE   1.17  14.0     N   62.4   63.3   63.1   74.3  29.935  0.00  0.00   739    10.59    803     4.8  0.34   5.0   0.017   0.000   73.0    60   58.3   73.4  10.99  .0733    0.000   202    7    100.0   10 
 8/17/22  2:20p   62.7   62.9   62.6    92   60.3   8.0   NNE   1.33  14.0   NNW   61.7   63.4   62.4   71.7  29.937  0.00  0.00   566     8.11    619     4.3  0.31   4.5   0.016   0.000   73.2    60   58.5   73.7  10.99  .0733    0.000   203    7    100.0   10 
 8/17/22  2:30p   63.6   63.6   62.7    92   61.2   8.0    NE   1.33  14.0     N   62.8   64.4   63.6   73.2  29.937  0.00  0.00   583     8.36    629     4.2  0.30   4.6   0.010   0.000   73.3    60   58.6   73.8  10.98  .0733    0.000   202    7    100.0   10 
 8/17/22  2:40p   63.9   63.9   63.6    92   61.5  10.0    NE   1.67  19.0   ENE   61.5   64.8   62.4   70.9  29.938  0.00  0.00   551     7.90    621     4.1  0.29   4.5   0.008   0.000   73.3    61   59.0   73.9  11.12  .0733    0.000   203    7    100.0   10 
 8/17/22  2:50p   64.0   64.1   63.8    92   61.6  11.0   NNE   1.83  17.0   NNE   60.9   64.9   61.8   69.2  29.939  0.00  0.00   477     6.84    541     3.5  0.25   3.8   0.007   0.000   73.0    62   59.2   73.5  11.29  .0733    0.000   203    7    100.0   10 
 8/17/22  3:00p   64.3   64.4   64.0    92   61.9  10.0    NE   1.67  18.0     N   62.0   65.2   62.9   70.6  29.934  0.00  0.00   482     6.91    563     3.5  0.25   3.8   0.005   0.000   72.7    62   58.9   73.1  11.30  .0733    0.013   202    7    100.0   10 
 8/17/22  3:10p   63.9   64.4   63.9    92   61.5  11.0   NNE   1.83  17.0    NE   60.8   64.8   61.7   69.0  29.935  0.00  0.00   464     6.65    517     3.3  0.24   3.6   0.008   0.000   72.5    63   59.2   72.9  11.50  .0733    0.000   203    7    100.0   10 
 8/17/22  3:20p   64.0   64.0   63.7    93   61.9  10.0   NNE   1.67  18.0     N   61.6   64.9   62.5   70.0  29.933  0.00  0.00   457     6.55    527     3.1  0.22   3.4   0.007   0.000   72.2    64   59.3   72.5  11.65  .0734    0.000   203    7    100.0   10 
 8/17/22  3:30p   64.2   64.2   63.9    92   61.8   9.0   NNE   1.50  16.0   NNE   62.6   65.1   63.5   72.0  29.932  0.00  0.00   503     7.21    570     2.9  0.21   3.3   0.006   0.000   72.0    64   59.2   72.2  11.65  .0734    0.000   203    7    100.0   10 
 8/17/22  3:40p   64.8   64.8   64.2    92   62.4   9.0    NE   1.50  16.0     N   63.4   65.8   64.4   73.1  29.933  0.00  0.00   507     7.27    554     3.1  0.22   3.3   0.001   0.000   71.9    65   59.5   72.2  11.85  .0734    0.000   204    7    100.0   10 
 8/17/22  3:50p   65.0   65.1   64.7    92   62.6   9.0    NE   1.50  16.0    NE   63.6   66.1   64.7   73.4  29.929  0.00  0.00   501     7.18    585     3.1  0.22   3.4   0.000   0.000   72.0    64   59.2   72.2  11.65  .0734    0.000   204    7    100.0   10 
 8/17/22  4:00p   65.2   65.2   64.9    91   62.5   9.0    NE   1.50  15.0    NE   63.8   66.3   64.9   73.2  29.927  0.00  0.00   463     6.64    522     2.9  0.21   3.1   0.000   0.001   72.2    64   59.3   72.5  11.65  .0734    0.011   205    7    100.0   10 
 8/17/22  4:10p   64.3   65.2   64.3    91   61.6  10.0   NNE   1.67  18.0     N   62.0   65.2   62.9   71.3  29.923  0.00  0.00   488     7.00    559     2.9  0.21   3.1   0.005   0.000   72.4    64   59.5   72.8  11.65  .0733    0.000   203    7    100.0   10 
 8/17/22  4:20p   63.9   64.3   63.6    92   61.5  10.0   NNE   1.67  17.0   NNE   61.5   64.8   62.4   70.8  29.921  0.00  0.00   476     6.82    492     2.7  0.19   2.9   0.008   0.000   72.6    64   59.7   73.1  11.65  .0733    0.000   202    7    100.0   10 
 8/17/22  4:30p   63.7   64.1   63.7    92   61.3  10.0   NNE   1.67  16.0     N   61.3   64.5   62.1   69.2  29.918  0.00  0.00   383     5.49    452     2.3  0.16   2.4   0.009   0.000   72.8    64   59.9   73.4  11.65  .0732    0.000   204    7    100.0   10 
 8/17/22  4:40p   63.8   63.8   63.6    92   61.4  10.0   NNE   1.67  16.0     N   61.4   64.7   62.3   70.0  29.913  0.00  0.00   409     5.86    487     2.3  0.16   2.4   0.008   0.000   73.0    64   60.1   73.6  11.65  .0732    0.000   203    7    100.0   10 
 8/17/22  4:50p   63.3   63.9   63.3    92   60.9  11.0   NNE   1.83  17.0   NNE   60.1   64.1   60.9   68.9  29.911  0.00  0.00   435     6.24    506     2.3  0.16   2.4   0.012   0.000   73.2    63   59.8   73.9  11.49  .0732    0.000   204    7    100.0   10 
 8/17/22  5:00p   62.7   63.3   62.7    92   60.3  11.0   NNE   1.83  17.0   NNE   59.4   63.4   60.1   66.9  29.910  0.00  0.00   354     5.07    492     1.9  0.14   2.3   0.016   0.000   73.3    63   59.9   74.0  11.48  .0731    0.010   204    7    100.0   10 
 8/17/22  5:10p   62.5   62.8   62.4    93   60.4   9.0   NNE   1.50  17.0   NNE   60.6   63.2   61.3   67.4  29.913  0.00  0.00   287     4.11    380     1.6  0.11   1.7   0.017   0.000   73.4    64   60.5   74.2  11.65  .0731    0.000   203    7    100.0   10 
 8/17/22  5:20p   62.8   62.9   62.5    93   60.7   8.0    NE   1.33  15.0   NNE   61.9   63.5   62.6   70.9  29.911  0.00  0.00   365     5.23    388     1.5  0.11   1.6   0.015   0.000   73.6    63   60.2   74.4  11.48  .0731    0.000   205    7    100.0   10 
 8/17/22  5:30p   62.7   62.9   62.7    93   60.6   8.0   NNE   1.33  13.0   NNE   61.7   63.4   62.4   69.9  29.911  0.00  0.00   318     4.56    396     1.3  0.09   1.4   0.016   0.000   73.7    63   60.3   74.6  11.48  .0731    0.000   204    7    100.0   10 
 8/17/22  5:40p   62.3   62.7   62.3    93   60.2   8.0   NNE   1.33  14.0   NNE   61.3   63.0   62.0   68.4  29.914  0.00  0.00   267     3.83    327     1.0  0.07   1.1   0.019   0.000   73.8    63   60.4   74.7  11.47  .0731    0.000   203    7    100.0   10 
 8/17/22  5:50p   62.1   62.3   62.0    94   60.4   7.0    NE   1.17  13.0   NNE   61.8   62.8   62.5   67.8  29.918  0.00  0.00   210     3.01    255     0.8  0.06   1.0   0.020   0.000   73.8    63   60.4   74.7  11.47  .0731    0.000   202    7    100.0   10 
 8/17/22  6:00p   62.2   62.2   62.0    94   60.5   8.0    NE   1.33  13.0   ENE   61.1   62.9   61.8   65.7  29.917  0.00  0.00   162     2.32    174     0.6  0.04   0.6   0.019   0.000   73.8    63   60.4   74.7  11.47  .0731    0.006   204    7    100.0   10 
 8/17/22  6:10p   62.5   62.5   62.2    95   61.0   7.0    NE   1.17  13.0   NNE   62.3   63.3   63.1   67.9  29.915  0.00  0.00   179     2.57    190     0.6  0.04   0.6   0.017   0.000   73.8    63   60.4   74.7  11.47  .0731    0.000   202    7    100.0   10 
 8/17/22  6:20p   62.3   62.6   62.3    95   60.8   8.0   NNE   1.33  16.0   NNE   61.3   63.0   62.0   66.3  29.912  0.00  0.00   162     2.32    186     0.5  0.04   0.5   0.019   0.000   73.8    63   60.4   74.7  11.47  .0731    0.000   204    7    100.0   10 
 8/17/22  6:30p   61.8   62.4   61.8    95   60.4   9.0   NNE   1.50  14.0    NE   59.8   62.5   60.5   64.8  29.909  0.00  0.00   161     2.31    183     0.4  0.03   0.5   0.022   0.000   73.8    62   60.0   74.6  11.27  .0731    0.000   203    7    100.0   10 
 8/17/22  6:40p   61.7   61.8   61.6    96   60.5   8.0   NNE   1.33  14.0   NNE   60.5   62.4   61.2   63.9  29.908  0.00  0.00   107     1.53    144     0.0  0.00   0.0   0.023   0.000   73.8    62   60.0   74.6  11.27  .0731    0.000   205    7    100.0   10 
 8/17/22  6:50p   61.8   61.8   61.7    96   60.6   7.0   NNE   1.17  14.0     N   61.4   62.5   62.1   63.7  29.909  0.00  0.00    74     1.06     83     0.0  0.00   0.0   0.022   0.000   73.8    62   60.0   74.6  11.27  .0731    0.000   203    7    100.0   10 
 8/17/22  7:00p   61.6   61.8   61.6    96   60.4   6.0    NE   1.00  12.0   NNE   61.5   62.2   62.1   63.1  29.912  0.00  0.00    58     0.83     65     0.0  0.00   0.0   0.024   0.000   73.8    62   60.0   74.6  11.27  .0731    0.003   203    7    100.0   10 
 8/17/22  7:10p   61.7   61.7   61.6    96   60.5   6.0   NNE   1.00  11.0   NNE   61.6   62.4   62.3   63.0  29.915  0.00  0.00    49     0.70     54     0.0  0.00   0.0   0.023   0.000   73.8    62   60.0   74.6  11.27  .0731    0.000   202    7    100.0   10 
 8/17/22  7:20p   61.6   61.7   61.5    96   60.4   6.0    NE   1.00  10.0   NNE   61.5   62.2   62.1   62.6  29.915  0.00  0.00    43     0.62     47     0.0  0.00   0.0   0.024   0.000   73.8    62   60.0   74.6  11.27  .0731    0.000   205    7    100.0   10 
 8/17/22  7:30p   61.3   61.6   61.2    96   60.2   6.0   NNE   1.00  11.0     N   61.2   61.9   61.8   61.8  29.916  0.00  0.00    34     0.49     39     0.0  0.00   0.0   0.026   0.000   73.7    63   60.3   74.6  11.48  .0731    0.000   204    7    100.0   10 
 8/17/22  7:40p   61.1   61.2   61.1    96   60.0   7.0   NNE   1.17  11.0     N   60.5   61.7   61.1   59.6  29.915  0.00  0.00    30     0.43     33     0.0  0.00   0.0   0.027   0.000   73.4    63   60.0   74.1  11.48  .0731    0.000   204    7    100.0   10 
 8/17/22  7:50p   60.8   61.2   60.8    96   59.7   7.0   NNE   1.17  13.0     N   60.2   61.3   60.7   59.1  29.916  0.00  0.00    24     0.34     26     0.0  0.00   0.0   0.029   0.000   73.1    63   59.8   73.7  11.49  .0732    0.000   205    7    100.0   10 
 8/17/22  8:00p   60.9   60.9   60.8    97   60.0   6.0    NE   1.00  11.0     E   60.7   61.5   61.3   59.5  29.919  0.00  0.00    13     0.19     18     0.0  0.00   0.0   0.028   0.000   72.9    64   60.0   73.5  11.65  .0732    0.001   204    7    100.0   10 
 8/17/22  8:10p   61.2   61.3   60.8    97   60.3   6.0    NE   1.00  13.0    NE   61.0   61.8   61.6   59.6  29.919  0.00  0.00     7     0.10      9     0.0  0.00   0.0   0.026   0.000   72.6    64   59.7   73.1  11.65  .0733    0.000   204    7    100.0   10 
 8/17/22  8:20p   61.0   61.3   61.0    97   60.1   6.0    NE   1.00  12.0     N   60.8   61.6   61.4   59.4  29.920  0.00  0.00     5     0.07      5     0.0  0.00   0.0   0.028   0.000   72.5    64   59.6   72.9  11.65  .0733    0.000   202    7    100.0   10 
 8/17/22  8:30p   60.8   61.0   60.8    97   59.9   6.0    NE   1.00  11.0   ENE   60.6   61.4   61.2   59.1  29.923  0.00  0.00     3     0.04      5     0.0  0.00   0.0   0.029   0.000   72.4    64   59.5   72.8  11.65  .0733    0.000   202    7    100.0   10 
 8/17/22  8:40p   60.7   60.8   60.7    97   59.8   5.0   NNE   0.83   9.0     N   60.7   61.3   61.3   59.1  29.919  0.00  0.00     0     0.00      0     0.0  0.00   0.0   0.030   0.000   72.4    64   59.5   72.8  11.65  .0733    0.000   204    7    100.0   10 
 8/17/22  8:50p   60.5   60.7   60.5    97   59.6   4.0    NE   0.67   8.0     N   60.5   61.0   61.0   58.8  29.918  0.00  0.00     0     0.00      0     0.0  0.00   0.0   0.031   0.000   72.4    64   59.5   72.8  11.65  .0733    0.000   203    7    100.0   10 
 8/17/22  9:00p   60.1   60.5   60.1    97   59.2   5.0   NNE   0.83   9.0     N   60.1   60.6   60.6   58.4  29.917  0.00  0.00     0     0.00      0     0.0  0.00   0.0   0.034   0.000   72.4    64   59.5   72.8  11.65  .0733    0.000   202    7    100.0   10 
 8/17/22  9:10p   59.9   60.1   59.9    97   59.0   4.0   NNE   0.67   8.0   NNE   59.9   60.4   60.4   58.2  29.926  0.00  0.00     0     0.00      0     0.0  0.00   0.0   0.035   0.000   72.4    64   59.5   72.8  11.65  .0733    0.000   203    7    100.0   10 
 8/17/22  9:20p   60.3   60.3   59.9    98   59.7   4.0    NE   0.67   9.0     N   60.3   60.8   60.8   58.6  29.927  0.00  0.00     0     0.00      0     0.0  0.00   0.0   0.033   0.000   72.4    64   59.5   72.8  11.65  .0733    0.000   200    7    100.0   10 
 8/17/22  9:30p   60.1   60.4   60.1    97   59.2   4.0   NNE   0.67   9.0   NNE   60.1   60.6   60.6   58.4  29.929  0.00  0.00     0     0.00      0     0.0  0.00   0.0   0.034   0.000   72.4    64   59.5   72.8  11.65  .0733    0.000   204    7    100.0   10 
 8/17/22  9:40p   60.1   60.2   60.0    97   59.2   4.0    NE   0.67   8.0     E   60.1   60.6   60.6   58.4  29.928  0.00  0.00     0     0.00      0     0.0  0.00   0.0   0.034   0.000   72.3    64   59.4   72.6  11.65  .0733    0.000   204    7    100.0   10 
 8/17/22  9:50p   60.1   60.2   60.0    98   59.5   4.0    NE   0.67   9.0    NE   60.1   60.6   60.6   58.4  29.933  0.00  0.00     0     0.00      0     0.0  0.00   0.0   0.034   0.000   72.3    64   59.4   72.6  11.65  .0734    0.000   205    7    100.0   10 
 8/17/22 10:00p   60.2   60.2   60.0    98   59.6   3.0    NE   0.50   8.0   NNE   60.2   60.7   60.7   58.5  29.940  0.00  0.00     0     0.00      0     0.0  0.00   0.0   0.033   0.000   72.2    64   59.3   72.5  11.65  .0734    0.000   203    7    100.0   10 
 8/17/22 10:10p   60.4   60.4   60.2    98   59.8   1.0   ENE   0.17   3.0    NE   60.4   61.0   61.0   58.8  29.946  0.00  0.00     0     0.00      0     0.0  0.00   0.0   0.032   0.000   72.3    64   59.4   72.6  11.65  .0734    0.000   201    7    100.0   10 
 8/17/22 10:20p   59.9   60.4   59.9    97   59.0   2.0     N   0.33   4.0     N   59.9   60.4   60.4   58.2  29.942  0.00  0.00     0     0.00      0     0.0  0.00   0.0   0.035   0.000   72.3    64   59.4   72.6  11.65  .0734    0.000   203    7    100.0   10 
 8/17/22 10:30p   59.5   59.9   59.5    98   58.9   1.0   NNE   0.17   2.0     N   59.5   60.0   60.0   57.8  29.945  0.00  0.00     0     0.00      0     0.0  0.00   0.0   0.038   0.000   72.4    64   59.5   72.8  11.65  .0734    0.000   205    7    100.0   10 
 8/17/22 10:40p   58.9   59.5   58.9    97   58.1   1.0   NNE   0.17   3.0   NNE   58.9   59.3   59.3   57.1  29.940  0.00  0.00     0     0.00      0     0.0  0.00   0.0   0.042   0.000   72.4    64   59.5   72.8  11.65  .0734    0.000   203    7    100.0   10 
 8/17/22 10:50p   59.2   59.2   58.7    98   58.6   3.0    NE   0.50   6.0    NE   59.2   59.7   59.7   57.5  29.934  0.00  0.00     0     0.00      0     0.0  0.00   0.0   0.040   0.000   72.4    64   59.5   72.8  11.65  .0733    0.000   203    7    100.0   10 
 8/17/22 11:00p   60.0   60.0   59.3    98   59.4   3.0    NE   0.50   8.0   NNE   60.0   60.5   60.5   58.3  29.936  0.00  0.00     0     0.00      0     0.0  0.00   0.0   0.035   0.000   72.4    64   59.5   72.8  11.65  .0733    0.000   202    7    100.0   10 
 8/17/22 11:10p   59.8   60.1   59.8    98   59.2   3.0    NE   0.50   5.0   ENE   59.8   60.3   60.3   58.1  29.940  0.00  0.00     0     0.00      0     0.0  0.00   0.0   0.036   0.000   72.4    64   59.5   72.8  11.65  .0734    0.000   202    7    100.0   10 
 8/17/22 11:20p   59.3   59.8   59.3    98   58.7   4.0   NNE   0.67   5.0   NNE   59.3   59.8   59.8   57.6  29.933  0.00  0.00     0     0.00      0     0.0  0.00   0.0   0.040   0.000   72.3    64   59.4   72.6  11.65  .0734    0.000   202    7    100.0   10 
 8/17/22 11:30p   59.1   59.3   59.1    98   58.5   3.0   NNE   0.50   5.0    NE   59.1   59.6   59.6   57.4  29.930  0.00  0.00     0     0.00      0     0.0  0.00   0.0   0.041   0.000   72.3    64   59.4   72.6  11.65  .0733    0.000   203    7    100.0   10 
 8/17/22 11:40p   59.4   59.4   59.1    98   58.8   3.0   NNE   0.50   5.0     N   59.4   59.9   59.9   57.7  29.929  0.00  0.00     0     0.00      0     0.0  0.00   0.0   0.039   0.000   72.3    64   59.4   72.6  11.65  .0733    0.000   202    7    100.0   10 
 8/17/22 11:50p   59.8   59.8   59.4    98   59.2   3.0    NE   0.50   5.0   ENE   59.8   60.3   60.3   58.1  29.927  0.00  0.00     0     0.00      0     0.0  0.00   0.0   0.036   0.000   72.3    64   59.4   72.6  11.65  .0733    0.000   204    7    100.0   10 
 8/18/22 12:00a   59.7   60.0   59.7    98   59.1   3.0   NNE   0.50   7.0   NNE   59.7   60.2   60.2   58.0  29.923  0.00  0.00     0     0.00      0     0.0  0.00   0.0   0.037   0.000   72.3    64   59.4   72.6  11.65  .0733    0.000   202    7    100.0   10 
 8/18/22 12:10a   59.8   59.8   59.7    98   59.2   4.0   NNE   0.67   8.0   NNE   59.8   60.3   60.3   58.1  29.920  0.00  0.00     0     0.00      0     0.0  0.00   0.0   0.036   0.000   72.3    64   59.4   72.6  11.65  .0733    0.000   201    7    100.0   10 
 8/18/22 12:20a   59.7   59.8   59.6    98   59.1   5.0    NE   0.83  12.0    NE   59.6   60.2   60.1   57.9  29.919  0.00  0.00     0     0.00      0     0.0  0.00   0.0   0.037   0.000   72.2    64   59.3   72.5  11.65  .0733    0.000   205    7    100.0   10 
 8/18/22 12:30a   59.8   59.9   59.7    98   59.2   6.0    NE   1.00  12.0    NE   59.4   60.3   59.9   57.7  29.914  0.00  0.00     0     0.00      0     0.0  0.00   0.0   0.036   0.000   72.0    64   59.2   72.2  11.65  .0734    0.000   204    7    100.0   10 
 8/18/22 12:40a   59.6   59.9   59.6    98   59.0   5.0   NNE   0.83   9.0   NNE   59.5   60.1   60.0   57.8  29.915  0.00  0.00     0     0.00      0     0.0  0.00   0.0   0.038   0.000   72.0    64   59.2   72.2  11.65  .0734    0.000   203    7    100.0   10 
 8/18/22 12:50a   59.1   59.6   59.1    98   58.5   5.0   NNE   0.83   9.0   NNE   58.9   59.6   59.4   57.2  29.914  0.00  0.00     0     0.00      0     0.0  0.00   0.0   0.041   0.000   71.9    64   59.1   72.1  11.65  .0734    0.000   204    7    100.0   10 
 8/18/22  1:00a   58.8   59.1   58.7    98   58.2   6.0   NNE   1.00  10.0     N   58.2   59.2   58.6   56.4  29.918  0.00  0.00     0     0.00      0     0.0  0.00   0.0   0.043   0.000   71.9    64   59.1   72.1  11.65  .0734    0.000   203    7    100.0   10 
 8/18/22  1:10a   58.5   58.8   58.4    98   57.9   5.0   NNE   0.83   9.0   NNE   58.2   58.9   58.6   56.3  29.921  0.00  0.00     0     0.00      0     0.0  0.00   0.0   0.045   0.000   71.8    64   59.0   71.9  11.65  .0734    0.000   202    7    100.0   10 
 8/18/22  1:20a   58.3   58.5   58.2    98   57.7   2.0    NE   0.33   8.0     N   58.3   58.7   58.7   56.4  29.929  0.00  0.00     0     0.00      0     0.0  0.00   0.0   0.047   0.000   71.8    64   59.0   71.9  11.65  .0734    0.000   203    7    100.0   10 
 8/18/22  1:30a   58.3   58.4   58.2    98   57.7   1.0    NE   0.17   2.0    NE   58.3   58.7   58.7   56.4  29.928  0.00  0.00     0     0.00      0     0.0  0.00   0.0   0.047   0.000   71.9    64   59.1   72.1  11.65  .0734    0.000   204    7    100.0   10 
 8/18/22  1:40a   57.5   58.3   57.5    98   56.9   0.0   ESE   0.00   2.0   ESE   57.5   57.8   57.8   55.5  29.933  0.00  0.00     0     0.00      0     0.0  0.00   0.0   0.052   0.000   72.0    64   59.2   72.2  11.65  .0734    0.000   202    7    100.0   10 
 8/18/22  1:50a   56.7   57.5   56.7    98   56.1   1.0   SSE   0.17   4.0   SSE   56.7   57.0   57.0   54.7  29.938  0.00  0.00     0     0.00      0     0.0  0.00   0.0   0.058   0.000   72.1    64   59.2   72.4  11.65  .0734    0.000   201    7    100.0   10 
 8/18/22  2:00a   56.8   56.8   56.6    99   56.5   0.0     S   0.00   2.0     S   56.8   57.2   57.2   54.9  29.935  0.00  0.00     0     0.00      0     0.0  0.00   0.0   0.057   0.000   72.1    64   59.2   72.4  11.65  .0734    0.000   202    7    100.0   10 
 8/18/22  2:10a   56.7   57.0   56.7    98   56.1   1.0     S   0.17   3.0     S   56.7   57.0   57.0   54.7  29.938  0.00  0.00     0     0.00      0     0.0  0.00   0.0   0.058   0.000   72.1    64   59.2   72.4  11.65  .0734    0.000   203    7    100.0   10 
 8/18/22  2:20a   56.4   56.7   56.4    99   56.1   0.0   SSE   0.00   2.0     S   56.4   56.8   56.8   54.5  29.935  0.00  0.00     0     0.00      0     0.0  0.00   0.0   0.060   0.000   72.2    64   59.3   72.5  11.65  .0734    0.000   204    7    100.0   10 
 8/18/22  2:30a   57.1   57.1   56.5    99   56.8   1.0   SSE   0.17   2.0   SSE   57.1   57.5   57.5   55.2  29.936  0.00  0.00     0     0.00      0     0.0  0.00   0.0   0.055   0.000   72.1    64   59.2   72.4  11.65  .0734    0.000   202    7    100.0   10 
 8/18/22  2:40a   57.4   57.4   57.1    99   57.1   0.0   ESE   0.00   2.0   ESE   57.4   57.8   57.8   55.5  29.937  0.00  0.00     0     0.00      0     0.0  0.00   0.0   0.053   0.000   72.2    63   58.9   72.4  11.51  .0734    0.000   204    7    100.0   10 
 8/18/22  2:50a   57.7   57.8   57.4    99   57.4   1.0   SSE   0.17   2.0    SE   57.7   58.1   58.1   55.8  29.937  0.00  0.00     0     0.00      0     0.0  0.00   0.0   0.051   0.000   72.2    63   58.9   72.4  11.51  .0734    0.000   203    7    100.0   10 
 8/18/22  3:00a   57.1   57.7   57.1    98   56.5   0.0   SSE   0.00   1.0   SSE   57.1   57.4   57.4   55.1  29.943  0.00  0.00     0     0.00      0     0.0  0.00   0.0   0.055   0.000   72.2    63   58.9   72.4  11.51  .0734    0.000   204    7    100.0   10 
 8/18/22  3:10a   57.1   57.1   56.8    99   56.8   0.0   SSE   0.00   1.0   SSE   57.1   57.5   57.5   55.2  29.939  0.00  0.00     0     0.00      0     0.0  0.00   0.0   0.055   0.000   72.2    63   58.9   72.4  11.51  .0734    0.000   204    7    100.0   10 
 8/18/22  3:20a   57.5   57.5   57.0    99   57.2   0.0   ---   0.00   0.0   ---   57.5   57.9   57.9   55.6  29.941  0.00  0.00     0     0.00      0     0.0  0.00   0.0   0.052   0.000   72.2    63   58.9   72.4  11.51  .0734    0.000   204    7    100.0   10 
 8/18/22  3:30a   57.7   57.7   57.4    99   57.4   0.0   ---   0.00   0.0   ---   57.7   58.1   58.1   55.8  29.942  0.00  0.00     0     0.00      0     0.0  0.00   0.0   0.051   0.000   72.2    63   58.9   72.4  11.51  .0734    0.000   205    7    100.0   10 
 8/18/22  3:40a   58.1   58.1   57.7    99   57.8   0.0   SSE   0.00   1.0   SSE   58.1   58.5   58.5   56.2  29.941  0.00  0.00     0     0.00      0     0.0  0.00   0.0   0.048   0.000   72.2    63   58.9   72.4  11.51  .0734    0.000   203    7    100.0   10 
 8/18/22  3:50a   58.5   58.6   58.1    99   58.2   0.0   SSE   0.00   1.0   SSE   58.5   58.9   58.9   56.7  29.939  0.00  0.00     0     0.00      0     0.0  0.00   0.0   0.045   0.000   72.2    63   58.9   72.4  11.51  .0734    0.000   204    7    100.0   10 
 8/18/22  4:00a   58.6   58.7   58.5    99   58.3   0.0   ---   0.00   0.0   ---   58.6   59.0   59.0   56.8  29.938  0.00  0.00     0     0.00      0     0.0  0.00   0.0   0.044   0.000   72.2    63   58.9   72.4  11.51  .0734    0.000   205    7    100.0   10 
 8/18/22  4:10a   58.8   58.8   58.6    99   58.5   0.0   ---   0.00   0.0   ---   58.8   59.3   59.3   57.1  29.939  0.00  0.00     0     0.00      0     0.0  0.00   0.0   0.043   0.000   72.2    63   58.9   72.4  11.51  .0734    0.000   201    7    100.0   10 
 8/18/22  4:20a   58.9   58.9   58.7    99   58.6   1.0     N   0.17   3.0     N   58.9   59.4   59.4   57.2  29.940  0.00  0.00     0     0.00      0     0.0  0.00   0.0   0.042   0.000   72.2    63   58.9   72.4  11.51  .0734    0.000   201    7    100.0   10 
 8/18/22  4:30a   58.7   58.9   58.7    99   58.4   2.0   NNE   0.33   3.0     N   58.7   59.2   59.2   57.0  29.941  0.00  0.00     0     0.00      0     0.0  0.00   0.0   0.044   0.000   72.2    63   58.9   72.4  11.51  .0734    0.000   203    7    100.0   10 
 8/18/22  4:40a   58.5   58.7   58.5    99   58.2   2.0   NNE   0.33   4.0   NNE   58.5   58.9   58.9   56.7  29.945  0.00  0.00     0     0.00      0     0.0  0.00   0.0   0.045   0.000   72.1    63   58.8   72.3  11.51  .0734    0.000   204    7    100.0   10 
 8/18/22  4:50a   58.2   58.5   58.2    99   57.9   2.0   NNE   0.33   3.0   NNE   58.2   58.6   58.6   56.3  29.942  0.00  0.00     0     0.00      0     0.0  0.00   0.0   0.047   0.000   72.1    63   58.8   72.3  11.51  .0734    0.000   201    7    100.0   10 
 8/18/22  5:00a   58.1   58.2   58.0    99   57.8   1.0    NE   0.17   3.0    NE   58.1   58.5   58.5   56.2  29.946  0.00  0.00     0     0.00      0     0.0  0.00   0.0   0.048   0.000   72.1    63   58.8   72.3  11.51  .0734    0.000   204    7    100.0   10 
 8/18/22  5:10a   58.1   58.1   58.0    99   57.8   0.0   NNE   0.00   2.0   NNE   58.1   58.5   58.5   56.2  29.948  0.00  0.00     0     0.00      0     0.0  0.00   0.0   0.048   0.000   72.1    63   58.8   72.3  11.51  .0735    0.000   204    7    100.0   10 
 8/18/22  5:20a   58.0   58.1   58.0    99   57.7   1.0   NNE   0.17   3.0   NNE   58.0   58.4   58.4   56.1  29.949  0.00  0.00     0     0.00      0     0.0  0.00   0.0   0.049   0.000   72.1    63   58.8   72.3  11.51  .0735    0.000   204    7    100.0   10 
 8/18/22  5:30a   58.3   58.3   58.0    99   58.0   2.0    NE   0.33   4.0   NNE   58.3   58.7   58.7   56.5  29.950  0.00  0.00     0     0.00      0     0.0  0.00   0.0   0.047   0.000   72.0    63   58.7   72.1  11.51  .0735    0.000   202    7    100.0   10 
 8/18/22  5:40a   58.0   58.3   58.0    99   57.7   1.0     N   0.17   2.0     N   58.0   58.4   58.4   56.1  29.955  0.00  0.00     0     0.00      0     0.0  0.00   0.0   0.049   0.000   72.0    63   58.7   72.1  11.51  .0735    0.000   202    7    100.0   10 
 8/18/22  5:50a   57.0   58.0   57.0    99   56.7   1.0     N   0.17   3.0   SSE   57.0   57.4   57.4   55.1  29.959  0.00  0.00     0     0.00      0     0.0  0.00   0.0   0.056   0.000   72.0    63   58.7   72.1  11.51  .0735    0.000   203    7    100.0   10 
 8/18/22  6:00a   56.8   57.0   56.8    99   56.5   1.0     S   0.17   2.0     S   56.8   57.2   57.2   54.9  29.960  0.00  0.00     0     0.00      0     0.0  0.00   0.0   0.057   0.000   72.1    62   58.4   72.2  11.31  .0735    0.000   204    7    100.0   10 
 8/18/22  6:10a   56.4   56.9   56.3    99   56.1   1.0   SSE   0.17   2.0   SSE   56.4   56.8   56.8   54.5  29.961  0.00  0.00     0     0.00      0     0.0  0.00   0.0   0.060   0.000   72.1    62   58.4   72.2  11.31  .0735    0.000   201    7    100.0   10 
 8/18/22  6:20a   56.3   56.3   55.9    99   56.0   0.0   SSE   0.00   1.0   SSE   56.3   56.7   56.7   54.4  29.964  0.00  0.00     0     0.00      0     0.0  0.00   0.0   0.060   0.000   72.1    62   58.4   72.2  11.31  .0735    0.000   204    7    100.0   10 
 8/18/22  6:30a   56.9   56.9   56.2    99   56.6   0.0   SSE   0.00   1.0   SSE   56.9   57.3   57.3   55.1  29.969  0.00  0.00     4     0.06      7     0.0  0.00   0.0   0.056   0.000   72.2    62   58.5   72.4  11.31  .0735    0.000   202    7    100.0   10 
 8/18/22  6:40a   56.7   56.9   56.7    99   56.4   0.0   SSE   0.00   1.0   SSE   56.7   57.1   57.1   55.0  29.966  0.00  0.00    10     0.14     12     0.0  0.00   0.0   0.058   0.000   72.2    62   58.5   72.4  11.31  .0735    0.000   200    7    100.0   10 
 8/18/22  6:50a   57.0   57.1   56.8   100   57.0   0.0   SSE   0.00   1.0   SSE   57.0   57.4   57.4   55.5  29.964  0.00  0.00    15     0.22     19     0.0  0.00   0.0   0.056   0.000   72.2    62   58.5   72.4  11.31  .0735    0.000   204    7    100.0   10 
 8/18/22  7:00a   57.7   57.7   57.1   100   57.7   0.0   SSE   0.00   1.0   SSE   57.7   58.1   58.1   57.6  29.965  0.00  0.00    26     0.37     33     0.0  0.00   0.0   0.051   0.000   72.2    62   58.5   72.4  11.31  .0735    0.000   203    7    100.0   10 
 8/18/22  7:10a   58.4   58.4   57.7   100   58.4   1.0     E   0.17   2.0   SSE   58.4   58.8   58.8   59.2  29.962  0.00  0.00    44     0.63     49     0.0  0.00   0.0   0.046   0.000   72.3    62   58.5   72.5  11.30  .0735    0.000   203    7    100.0   10 
 8/18/22  7:20a   58.2   58.6   58.1    99   57.9   1.0     N   0.17   2.0    NE   58.2   58.6   58.6   59.3  29.962  0.00  0.00    53     0.76     60     0.0  0.00   0.0   0.047   0.000   72.3    62   58.5   72.5  11.30  .0735    0.000   205    7    100.0   10 
 8/18/22  7:30a   57.6   58.1   57.6    99   57.3   0.0    NE   0.00   1.0    NE   57.6   58.0   58.0   59.3  29.962  0.00  0.00    68     0.97     76     0.0  0.00   0.0   0.051   0.000   72.3    62   58.5   72.5  11.30  .0735    0.000   202    7    100.0   10 
 8/18/22  7:40a   57.5   57.6   57.3    99   57.2   1.0   NNE   0.17   3.0     N   57.5   57.9   57.9   59.6  29.961  0.00  0.00    80     1.15     93     0.0  0.00   0.0   0.052   0.000   72.4    62   58.6   72.6  11.30  .0734    0.000   202    7    100.0   10 
 8/18/22  7:50a   58.5   58.5   57.5   100   58.5   2.0    NE   0.33   4.0   NNE   58.5   59.0   59.0   60.5  29.966  0.00  0.00    77     1.10     93     0.0  0.00   0.0   0.045   0.000   72.5    62   58.7   72.8  11.30  .0734    0.000   204    7    100.0   10 
 8/18/22  8:00a   59.7   59.7   58.5   100   59.7   2.0    NE   0.33   4.0   ENE   59.7   60.3   60.3   62.5  29.970  0.00  0.00    95     1.36    116     0.0  0.00   0.0   0.037   0.000   72.5    62   58.7   72.8  11.30  .0735    0.001   204    7    100.0   10 
 8/18/22  8:10a   60.2   60.2   59.7   100   60.2   1.0    NE   0.17   4.0    NE   60.2   60.8   60.8   63.8  29.976  0.00  0.00   121     1.73    137     0.0  0.00   0.0   0.033   0.000   72.5    62   58.7   72.8  11.30  .0735    0.000   201    7    100.0   10 
 8/18/22  8:20a   59.7   60.3   59.7    99   59.4   2.0     N   0.33   4.0     N   59.7   60.2   60.2   62.4  29.972  0.00  0.00   104     1.49    148     0.5  0.04   0.6   0.037   0.000   72.6    61   58.4   72.9  11.15  .0735    0.000   203    7    100.0   10 
 8/18/22  8:30a   59.5   59.7   59.5    99   59.2   2.0     N   0.33   4.0     N   59.5   60.0   60.0   63.9  29.968  0.00  0.00   158     2.26    171     0.7  0.05   0.7   0.038   0.000   72.6    61   58.4   72.9  11.15  .0735    0.000   204    7    100.0   10 
 8/18/22  8:40a   59.6   59.6   59.4    99   59.3   2.0     N   0.33   4.0   NNE   59.6   60.1   60.1   63.8  29.964  0.00  0.00   157     2.25    167     0.8  0.06   0.9   0.038   0.000   72.7    61   58.5   73.0  11.14  .0734    0.000   200    7    100.0   10 
 8/18/22  8:50a   60.0   60.0   59.6   100   60.0   2.0     N   0.33   3.0     N   60.0   60.6   60.6   65.1  29.965  0.00  0.00   187     2.68    199     1.0  0.07   1.0   0.035   0.000   72.7    61   58.5   73.0  11.14  .0734    0.000   203    7    100.0   10 
 8/18/22  9:00a   59.6   60.0   59.5    99   59.3   3.0     N   0.50   5.0     N   59.6   60.1   60.1   64.0  29.966  0.00  0.00   172     2.47    197     1.0  0.07   1.1   0.038   0.000   72.8    61   58.6   73.2  11.14  .0734    0.003   203    7    100.0   10 
 8/18/22  9:10a   59.8   59.8   59.6    99   59.5   2.0   NNE   0.33   4.0    NE   59.8   60.3   60.3   63.7  29.965  0.00  0.00   161     2.31    186     1.2  0.09   1.3   0.036   0.000   72.9    61   58.7   73.3  11.13  .0734    0.000   204    7    100.0   10 
 8/18/22  9:20a   60.0   60.0   59.8    99   59.7   2.0   NNE   0.33   4.0    NE   60.0   60.6   60.6   65.0  29.963  0.00  0.00   202     2.90    253     1.3  0.09   1.4   0.035   0.000   73.0    61   58.8   73.5  11.13  .0734    0.000   204    7    100.0   10 
 8/18/22  9:30a   60.2   60.2   60.0    99   59.9   3.0     N   0.50   5.0   NNE   60.2   60.8   60.8   68.5  29.959  0.00  0.00   341     4.89    392     1.6  0.11   1.8   0.033   0.000   73.0    61   58.8   73.5  11.13  .0734    0.000   202    7    100.0   10 
 8/18/22  9:40a   60.2   60.4   60.1    99   59.9   3.0     N   0.50   5.0     N   60.2   60.8   60.8   69.2  29.953  0.00  0.00   383     5.49    436     1.9  0.14   2.0   0.033   0.000   73.1    61   58.8   73.6  11.13  .0733    0.000   202    7    100.0   10 
 8/18/22  9:50a   60.6   60.6   60.2    99   60.3   3.0     N   0.50   6.0     N   60.6   61.2   61.2   70.1  29.953  0.00  0.00   418     5.99    496     2.1  0.15   2.3   0.031   0.000   73.1    61   58.8   73.6  11.13  .0733    0.000   205    7    100.0   10 
 8/18/22 10:00a   60.5   60.7   60.4    99   60.2   5.0   NNE   0.83   9.0   NNE   60.5   61.1   61.1   71.3  29.948  0.00  0.00   508     7.28    605     2.5  0.18   2.7   0.031   0.000   73.2    61   58.9   73.7  11.12  .0733    0.007   202    7    100.0   10 
 8/18/22 10:10a   61.0   61.0   60.5    99   60.7   7.0     N   1.17  12.0   NNE   60.4   61.7   61.1   71.9  29.947  0.00  0.00   597     8.56    610     2.8  0.20   2.9   0.028   0.000   73.2    61   58.9   73.7  11.12  .0733    0.000   203    7    100.0   10 
 8/18/22 10:20a   60.7   61.1   60.6    98   60.1   6.0     N   1.00  10.0     N   60.4   61.3   61.0   71.5  29.945  0.00  0.00   558     8.00    596     2.8  0.20   2.9   0.030   0.000   73.3    61   59.0   73.9  11.12  .0733    0.000   203    7    100.0   10 
 8/18/22 10:30a   60.5   60.6   60.5    98   59.9   5.0     N   0.83   9.0     N   60.5   61.1   61.1   71.4  29.946  0.00  0.00   555     7.96    615     2.8  0.20   3.1   0.031   0.000   73.3    61   59.0   73.9  11.12  .0733    0.000   202    7    100.0   10 
 8/18/22 10:40a   61.1   61.1   60.5    98   60.5   6.0     N   1.00   9.0     N   60.9   61.7   61.5   71.8  29.942  0.00  0.00   557     7.98    633     3.1  0.22   3.5   0.027   0.000   73.3    61   59.0   73.9  11.12  .0733    0.000   203    7    100.0   10 
 8/18/22 10:50a   61.0   61.3   61.0    97   60.1   6.0     N   1.00   9.0   NNE   60.8   61.6   61.4   72.5  29.942  0.00  0.00   657     9.42    708     3.6  0.26   3.7   0.028   0.000   73.4    61   59.1   74.0  11.11  .0732    0.000   203    7    100.0   10 
 8/18/22 11:00a   60.8   61.0   60.7    98   60.2   6.0     N   1.00   9.0     N   60.6   61.4   61.2   72.2  29.948  0.00  0.00   640     9.17    722     3.6  0.26   3.7   0.029   0.000   73.4    61   59.1   74.0  11.11  .0733    0.012   204    7    100.0   10 
 8/18/22 11:10a   61.5   61.5   60.8    98   60.9   4.0     N   0.67   8.0     N   61.5   62.2   62.2   72.8  29.953  0.00  0.00   604     8.66    650     3.5  0.25   3.6   0.024   0.000   73.5    61   59.2   74.1  11.11  .0733    0.000   204    7    100.0   10 
 8/18/22 11:20a   61.6   61.7   61.4    97   60.7   4.0     N   0.67   7.0   NNE   61.6   62.3   62.3   73.2  29.948  0.00  0.00   649     9.30    719     3.9  0.28   4.4   0.024   0.000   73.5    61   59.2   74.1  11.11  .0732    0.000   203    7    100.0   10 
 8/18/22 11:30a   61.3   61.8   61.3    96   60.2   3.0     N   0.50   5.0   NNE   61.3   61.9   61.9   73.3  29.955  0.00  0.00   720    10.32    747     4.6  0.33   4.8   0.026   0.000   73.6    61   59.3   74.3  11.11  .0732    0.000   203    7    100.0   10 
 8/18/22 11:40a   59.7   61.2   59.7    97   58.8   3.0   WSW   0.50   5.0   WSW   59.7   60.2   60.2   71.3  29.956  0.00  0.00   695     9.96    733     4.8  0.34   5.0   0.037   0.000   73.7    61   59.4   74.4  11.10  .0732    0.000   205    7    100.0   10 
 8/18/22 11:50a   59.1   59.7   59.0    97   58.2   4.0     S   0.67   6.0     S   59.1   59.5   59.5   70.0  29.958  0.00  0.00   618     8.86    696     4.4  0.31   4.8   0.041   0.000   73.7    61   59.4   74.4  11.10  .0732    0.000   203    7    100.0   10 
 8/18/22 12:00p   58.3   59.1   58.3    97   57.5   4.0     S   0.67   6.0   SSE   58.3   58.7   58.7   68.2  29.961  0.00  0.00   541     7.76    580     4.1  0.29   4.2   0.047   0.000   73.8    61   59.5   74.5  11.10  .0732    0.013   202    7    100.0   10 
 8/18/22 12:10p   58.7   58.8   58.3    97   57.9   3.0     S   0.50   5.0     S   58.7   59.1   59.1   68.9  29.963  0.00  0.00   570     8.17    635     4.2  0.30   4.5   0.044   0.000   73.9    61   59.6   74.7  11.09  .0732    0.000   203    7    100.0   10 
 8/18/22 12:20p   58.9   59.2   58.7    97   58.1   3.0     S   0.50   5.0   SSE   58.9   59.3   59.3   69.6  29.964  0.00  0.00   610     8.74    649     4.4  0.31   4.6   0.042   0.000   74.0    61   59.7   74.8  11.09  .0732    0.000   205    7    100.0   10 
 8/18/22 12:30p   58.8   58.8   58.6    98   58.2   3.0   SSW   0.50   5.0   SSW   58.8   59.2   59.2   68.4  29.962  0.00  0.00   518     7.43    582     4.0  0.29   4.2   0.043   0.000   74.1    61   59.8   74.9  11.09  .0732    0.000   203    7    100.0   10 
 8/18/22 12:40p   59.1   59.1   58.8    98   58.5   2.0     S   0.33   4.0   SSE   59.1   59.6   59.6   67.4  29.961  0.00  0.00   431     6.18    459     3.6  0.26   3.7   0.041   0.000   74.2    60   59.4   74.9  10.97  .0732    0.000   204    7    100.0   10 
 8/18/22 12:50p   59.0   59.3   59.0    98   58.4   3.0     S   0.50   4.0   SSE   59.0   59.5   59.5   68.6  29.961  0.00  0.00   513     7.35    541     4.0  0.29   4.1   0.042   0.000   74.0    60   59.2   74.7  10.97  .0732    0.000   200    7    100.0   10 
 8/18/22  1:00p   59.4   59.4   59.0    98   58.8   2.0     S   0.33   5.0   SSE   59.4   59.9   59.9   68.3  29.961  0.00  0.00   471     6.75    520     3.9  0.28   4.1   0.039   0.000   73.5    60   58.8   74.1  10.98  .0733    0.010   204    7    100.0   10 
 8/18/22  1:10p   59.4   59.7   59.4    98   58.8   2.0   SSW   0.33   5.0   SSW   59.4   59.9   59.9   69.0  29.961  0.00  0.00   516     7.40    561     4.3  0.31   4.5   0.039   0.000   73.6    61   59.3   74.3  11.11  .0733    0.000   203    7    100.0   10 
 8/18/22  1:20p   58.9   59.4   58.9    98   58.3   4.0   SSW   0.67   6.0   SSE   58.9   59.4   59.4   67.4  29.970  0.00  0.00   442     6.34    545     3.9  0.28   4.4   0.042   0.000   73.8    61   59.5   74.5  11.10  .0732    0.000   203    7    100.0   10 
 8/18/22  1:30p   58.9   59.0   58.6    98   58.3   3.0     S   0.50   5.0   SSE   58.9   59.4   59.4   66.3  29.968  0.00  0.00   383     5.49    461     3.5  0.25   3.7   0.042   0.000   74.0    61   59.7   74.8  11.09  .0732    0.000   204    7    100.0   10 
 8/18/22  1:40p   59.2   59.2   58.9    98   58.6   3.0     S   0.50   5.0   SSE   59.2   59.7   59.7   68.7  29.978  0.00  0.00   508     7.28    524     4.1  0.29   4.2   0.040   0.000   74.2    61   59.9   75.0  11.08  .0732    0.000   204    7    100.0   10 
 8/18/22  1:50p   59.1   59.2   59.0    98   58.5   4.0     S   0.67   7.0     S   59.1   59.6   59.6   67.6  29.985  0.00  0.00   441     6.32    506     3.6  0.26   4.0   0.041   0.000   74.4    61   60.1   75.3  11.07  .0732    0.000   201    7    100.0   10 
 8/18/22  2:00p   59.4   59.5   59.0    98   58.8   5.0     S   0.83   7.0     S   59.3   59.9   59.8   66.3  29.985  0.00  0.00   360     5.16    418     3.1  0.22   3.4   0.039   0.000   74.5    61   60.2   75.4  11.07  .0732    0.009   201    7    100.0   10 
 8/18/22  2:10p   59.7   59.7   59.3    98   59.1   5.0     S   0.83   8.0   SSE   59.6   60.2   60.1   65.9  29.985  0.00  0.00   321     4.60    367     2.8  0.20   3.0   0.037   0.000   74.6    61   60.3   75.5  11.07  .0731    0.000   205    7    100.0   10 
 8/18/22  2:20p   59.5   59.8   59.4    98   58.9   6.0     S   1.00   9.0     S   59.0   60.0   59.5   65.1  29.994  0.00  0.00   312     4.47    341     2.6  0.19   2.7   0.038   0.000   74.6    61   60.3   75.5  11.07  .0732    0.000   201    7    100.0   10 
 8/18/22  2:30p   59.9   59.9   59.4    99   59.6   6.0     S   1.00  11.0   SSE   59.5   60.5   60.1   64.4  29.992  0.00  0.00   250     3.58    279     2.2  0.16   2.4   0.035   0.000   74.6    61   60.3   75.5  11.07  .0732    0.000   203    7    100.0   10 
 8/18/22  2:40p   59.9   60.0   59.7    99   59.6   5.0     S   0.83   8.0     S   59.9   60.5   60.5   65.3  29.987  0.00  0.00   271     3.88    316     2.3  0.16   2.6   0.035   0.000   74.6    61   60.3   75.5  11.07  .0731    0.000   203    7    100.0   10 
 8/18/22  2:50p   60.7   60.7   59.8    99   60.4   3.0     S   0.50   5.0     S   60.7   61.3   61.3   68.3  29.979  0.00  0.00   377     5.40    418     3.0  0.21   3.2   0.030   0.000   74.7    61   60.4   75.6  11.06  .0731    0.000   204    7    100.0   10 
 8/18/22  3:00p   60.9   60.9   60.7    98   60.3   2.0     S   0.33   4.0     S   60.9   61.5   61.5   67.5  29.980  0.00  0.00   323     4.63    345     2.7  0.19   2.8   0.028   0.000   74.6    61   60.3   75.5  11.07  .0731    0.006   203    7    100.0   10 
 8/18/22  3:10p   60.9   61.0   60.8    98   60.3   2.0   SSW   0.33   4.0   SSE   60.9   61.5   61.5   68.1  29.974  0.00  0.00   348     4.99    367     2.8  0.20   2.9   0.028   0.000   74.5    61   60.2   75.4  11.07  .0731    0.000   202    7    100.0   10 
 8/18/22  3:20p   60.8   61.0   60.7    98   60.2   2.0     S   0.33   4.0     S   60.8   61.4   61.4   67.1  29.973  0.00  0.00   300     4.30    316     2.6  0.19   2.7   0.029   0.000   74.3    61   60.0   75.2  11.08  .0732    0.000   204    7    100.0   10 
 8/18/22  3:30p   60.3   60.8   60.2    98   59.7   3.0     S   0.50   4.0     S   60.3   60.8   60.8   65.8  29.975  0.00  0.00   273     3.91    301     2.4  0.17   2.5   0.033   0.000   74.3    61   60.0   75.2  11.08  .0732    0.000   203    7    100.0   10 
 8/18/22  3:40p   60.7   60.7   60.2    99   60.4   2.0     S   0.33   4.0     S   60.7   61.3   61.3   68.6  29.978  0.00  0.00   374     5.36    457     2.7  0.19   3.0   0.030   0.000   74.5    61   60.2   75.4  11.07  .0731    0.000   203    7    100.0   10 
 8/18/22  3:50p   60.9   60.9   60.7    98   60.3   2.0   SSE   0.33   4.0     S   60.9   61.5   61.5   69.9  29.981  0.00  0.00   430     6.16    503     2.8  0.20   3.0   0.028   0.000   74.7    61   60.4   75.6  11.06  .0731    0.000   203    7    100.0   10 
 8/18/22  4:00p   61.8   61.8   60.9    99   61.5   1.0   SSE   0.17   4.0   SSE   61.8   62.6   62.6   73.2  29.974  0.00  0.00   566     8.11    640     3.5  0.25   3.8   0.022   0.000   74.9    61   60.5   75.9  11.05  .0731    0.008   204    7    100.0   10 
 8/18/22  4:10p   62.4   62.5   61.8    98   61.8   2.0     S   0.33   4.0   SSE   62.4   63.2   63.2   74.1  29.976  0.00  0.00   590     8.46    652     3.4  0.24   3.7   0.018   0.000   75.1    61   60.7   76.1  11.05  .0730    0.000   203    7    100.0   10 
 8/18/22  4:20p   62.0   62.5   62.0    98   61.4   2.0    SW   0.33   3.0    SW   62.0   62.8   62.8   72.0  29.981  0.00  0.00   449     6.44    526     2.9  0.21   3.0   0.021   0.000   75.2    61   60.8   76.1  11.05  .0730    0.000   203    7    100.0   10 
 8/18/22  4:30p   61.9   62.1   61.8    98   61.3   2.0   SSW   0.33   4.0   SSE   61.9   62.6   62.6   71.9  29.977  0.00  0.00   445     6.38    585     2.7  0.19   3.1   0.022   0.000   75.3    61   60.9   76.2  11.04  .0730    0.000   200    7    100.0   10 
 8/18/22  4:40p   61.5   61.9   61.5    97   60.6   2.0     S   0.33   4.0   SSE   61.5   62.2   62.2   69.6  29.977  0.00  0.00   339     4.86    390     2.2  0.16   2.4   0.024   0.000   75.4    61   61.0   76.3  11.04  .0730    0.000   204    7    100.0   10 
 8/18/22  4:50p   61.5   61.6   61.4    97   60.6   2.0     S   0.33   5.0   SSE   61.5   62.2   62.2   71.7  29.978  0.00  0.00   437     6.26    483     2.5  0.18   2.6   0.024   0.000   75.4    61   61.0   76.3  11.04  .0730    0.000   204    7    100.0   10 
 8/18/22  5:00p   61.7   61.7   61.3    98   61.1   2.0   SSE   0.33   5.0     S   61.7   62.4   62.4   72.1  29.974  0.00  0.00   435     6.24    504     2.3  0.16   2.3   0.023   0.000   75.6    61   61.2   76.5  11.04  .0729    0.009   202    7    100.0   10 
 8/18/22  5:10p   61.7   62.2   61.7    96   60.5   3.0    SW   0.50   5.0   SSW   61.7   62.4   62.4   73.1  29.980  0.00  0.00   508     7.28    628     2.3  0.16   2.3   0.023   0.000   75.7    61   61.3   76.6  11.04  .0729    0.000   201    7    100.0   10 
 8/18/22  5:20p   60.6   61.6   60.5    97   59.7   4.0    SW   0.67   6.0    SW   60.6   61.1   61.1   71.5  29.981  0.00  0.00   473     6.78    550     1.9  0.14   2.1   0.031   0.000   75.8    61   61.4   76.6  11.03  .0729    0.000   203    7    100.0   10 
 8/18/22  5:30p   60.4   60.6   60.2    97   59.5   2.0     S   0.33   5.0   SSE   60.4   60.9   60.9   70.5  29.979  0.00  0.00   401     5.75    496     1.5  0.11   1.7   0.032   0.000   75.9    60   61.0   76.6  10.91  .0729    0.000   204    7    100.0   10 
 8/18/22  5:40p   61.5   61.5   60.4    98   60.9   2.0     S   0.33   5.0   SSE   61.5   62.2   62.2   71.9  29.971  0.00  0.00   394     5.65    478     1.4  0.10   1.5   0.024   0.000   76.0    60   61.1   76.7  10.91  .0729    0.000   204    7    100.0   10 
 8/18/22  5:50p   61.0   61.6   61.0    96   59.9   2.0     S   0.33   4.0   SSE   61.0   61.5   61.5   69.8  29.970  0.00  0.00   312     4.47    357     1.3  0.09   1.3   0.028   0.000   76.0    60   61.1   76.7  10.91  .0729    0.000   202    7    100.0   10 
 8/18/22  6:00p   60.7   61.0   60.7    96   59.6   3.0     S   0.50   5.0   SSE   60.7   61.2   61.2   72.5  29.964  0.00  0.00   451     6.47    506     1.3  0.09   1.3   0.030   0.000   76.1    60   61.2   76.8  10.91  .0728    0.009   203    7    100.0   10 
 8/18/22  6:10p   61.2   61.5   60.7    96   60.1   4.0     S   0.67   6.0   SSE   61.2   61.8   61.8   71.1  29.958  0.00  0.00   365     5.23    427     1.1  0.08   1.2   0.026   0.000   76.2    60   61.3   76.9  10.90  .0728    0.000   203    7    100.0   10 
 8/18/22  6:20p   60.2   61.3   60.2    96   59.1   3.0     S   0.50   5.0     S   60.2   60.7   60.7   68.6  29.955  0.00  0.00   275     3.94    316     0.8  0.06   0.9   0.033   0.000   76.2    60   61.3   76.9  10.90  .0728    0.000   203    7    100.0   10 
 8/18/22  6:30p   59.7   60.2   59.7    96   58.6   3.0     S   0.50   5.0     S   59.7   60.1   60.1   67.8  29.956  0.00  0.00   262     3.76    276     0.6  0.04   0.7   0.037   0.000   76.0    58   60.2   76.5  10.51  .0729    0.000   201    7    100.0   10 
 8/18/22  6:40p   59.3   60.0   59.3    96   58.2   3.0     S   0.50   6.0     S   59.3   59.7   59.7   66.0  29.963  0.00  0.00   205     2.94    250     0.2  0.01   0.5   0.040   0.000   75.7    58   59.9   76.3  10.52  .0729    0.000   205    7    100.0   10 
 8/18/22  6:50p   58.9   59.3   58.8    97   58.1   5.0     S   0.83   8.0     S   58.7   59.3   59.1   63.5  29.968  0.00  0.00   149     2.14    190     0.0  0.00   0.0   0.042   0.000   75.3    59   60.0   76.1  10.74  .0730    0.000   202    7    100.0   10 
 8/18/22  7:00p   59.4   59.4   58.9    97   58.5   5.0     S   0.83   9.0     S   59.3   59.9   59.8   61.1  29.965  0.00  0.00    67     0.96     77     0.0  0.00   0.0   0.039   0.000   75.4    60   60.5   76.2  10.93  .0730    0.005   204    7    100.0   10 
 8/18/22  7:10p   59.3   59.5   59.3    98   58.7   6.0     S   1.00  10.0     S   58.8   59.8   59.3   59.9  29.964  0.00  0.00    48     0.69     60     0.0  0.00   0.0   0.040   0.000   75.5    60   60.6   76.3  10.93  .0729    0.000   202    7    100.0   10 
 8/18/22  7:20p   59.7   59.7   59.3    98   59.1   6.0     S   1.00   9.0     S   59.2   60.2   59.7   59.8  29.962  0.00  0.00    36     0.52     40     0.0  0.00   0.0   0.037   0.000   75.5    60   60.6   76.3  10.93  .0729    0.000   205    7    100.0   10 
 8/18/22  7:30p   59.4   60.0   59.4    98   58.8   5.0     S   0.83   8.0     S   59.3   59.9   59.8   58.2  29.960  0.00  0.00    24     0.34     32     0.0  0.00   0.0   0.039   0.000   75.4    59   60.1   76.1  10.73  .0730    0.000   204    7    100.0   10 
 8/18/22  7:40p   59.1   59.8   59.1    98   58.5   6.0     S   1.00   9.0   SSE   58.5   59.6   59.0   57.2  29.961  0.00  0.00    16     0.23     19     0.0  0.00   0.0   0.041   0.000   75.2    59   59.9   76.0  10.74  .0730    0.000   203    7    100.0   10 
 8/18/22  7:50p   58.7   59.2   58.6    98   58.1   5.0     S   0.83   8.0     S   58.4   59.1   58.8   56.9  29.964  0.00  0.00    13     0.19     16     0.0  0.00   0.0   0.044   0.000   75.0    60   60.2   75.9  10.95  .0730    0.000   202    7    100.0   10 
 8/18/22  8:00p   59.2   59.2   58.7    99   58.9   7.0     S   1.17  10.0     S   58.2   59.7   58.7   56.6  29.968  0.00  0.00     6     0.09      9     0.0  0.00   0.0   0.040   0.000   74.8    60   60.0   75.7  10.95  .0731    0.001   204    7    100.0   10 
 8/18/22  8:10p   59.4   59.5   59.0    99   59.1   7.0     S   1.17  11.0   SSE   58.5   59.9   59.0   56.8  29.973  0.00  0.00     0     0.00      0     0.0  0.00   0.0   0.039   0.000   74.7    60   59.9   75.5  10.96  .0731    0.000   202    7    100.0   10 
 8/18/22  8:20p   59.1   59.6   59.1    99   58.8   8.0     S   1.33  12.0     S   57.4   59.6   57.9   55.8  29.980  0.00  0.00     0     0.00      0     0.0  0.00   0.0   0.041   0.000   74.5    60   59.7   75.3  10.96  .0732    0.000   202    7    100.0   10 
 8/18/22  8:30p   60.1   60.1   59.1   100   60.1   7.0     S   1.17  11.0     S   59.3   60.7   59.9   57.8  29.981  0.00  0.00     0     0.00      0     0.0  0.00   0.0   0.034   0.000   74.3    61   60.0   75.2  11.08  .0732    0.000   203    7    100.0   10 
 8/18/22  8:40p   60.5   60.5   60.0   100   60.5   6.0     S   1.00  11.0     S   60.2   61.2   60.9   58.8  29.982  0.00  0.00     0     0.00      0     0.0  0.00   0.0   0.031   0.000   74.3    61   60.0   75.2  11.08  .0732    0.000   202    7    100.0   10 
 8/18/22  8:50p   60.4   60.8   60.4    99   60.1   6.0     S   1.00   9.0     S   60.1   61.0   60.7   58.6  29.984  0.00  0.00     0     0.00      0     0.0  0.00   0.0   0.032   0.000   74.4    61   60.1   75.3  11.07  .0732    0.000   203    7    100.0   10 
 8/18/22  9:00p   60.5   60.7   60.1    99   60.2   5.0     S   0.83   7.0     S   60.5   61.1   61.1   59.0  29.985  0.00  0.00     0     0.00      0     0.0  0.00   0.0   0.031   0.000   74.4    61   60.1   75.3  11.07  .0732    0.000   204    7    100.0   10 
 8/18/22  9:10p   59.6   60.5   59.6    99   59.3   5.0     S   0.83   7.0   SSE   59.5   60.1   60.0   57.8  29.993  0.00  0.00     0     0.00      0     0.0  0.00   0.0   0.038   0.000   74.5    61   60.2   75.4  11.07  .0732    0.000   203    7    100.0   10 
 8/18/22  9:20p   60.6   60.6   59.5   100   60.6   5.0     S   0.83   9.0     S   60.6   61.3   61.3   59.2  29.996  0.00  0.00     0     0.00      0     0.0  0.00   0.0   0.031   0.000   74.5    61   60.2   75.4  11.07  .0732    0.000   203    7    100.0   10 
 8/18/22  9:30p   60.1   60.7   60.1    99   59.8   5.0     S   0.83   8.0     S   60.1   60.7   60.7   58.5  30.000  0.00  0.00     0     0.00      0     0.0  0.00   0.0   0.034   0.000   74.5    61   60.2   75.4  11.07  .0732    0.000   204    7    100.0   10 
 8/18/22  9:40p   60.2   60.2   60.0   100   60.2   5.0     S   0.83   8.0     S   60.2   60.8   60.8   58.7  30.001  0.00  0.00     0     0.00      0     0.0  0.00   0.0   0.033   0.000   74.5    61   60.2   75.4  11.07  .0732    0.000   201    7    100.0   10 
 8/18/22  9:50p   60.3   60.3   59.9   100   60.3   4.0     S   0.67   7.0   SSW   60.3   60.9   60.9   58.8  29.999  0.00  0.00     0     0.00      0     0.0  0.00   0.0   0.033   0.000   74.5    61   60.2   75.4  11.07  .0732    0.000   205    7    100.0   10 
 8/18/22 10:00p   60.7   60.8   60.1   100   60.7   4.0     S   0.67   7.0     S   60.7   61.4   61.4   59.3  30.003  0.00  0.00     0     0.00      0     0.0  0.00   0.0   0.030   0.000   74.5    61   60.2   75.4  11.07  .0732    0.000   204    7    100.0   10 
 8/18/22 10:10p   60.8   60.9   60.7   100   60.8   4.0     S   0.67   7.0     S   60.8   61.5   61.5   59.4  30.002  0.00  0.00     0     0.00      0     0.0  0.00   0.0   0.029   0.000   74.5    61   60.2   75.4  11.07  .0732    0.000   202    7    100.0   10 
 8/18/22 10:20p   60.3   60.8   59.9   100   60.3   4.0     S   0.67   7.0     S   60.3   60.9   60.9   58.8  30.002  0.00  0.00     0     0.00      0     0.0  0.00   0.0   0.033   0.000   74.5    61   60.2   75.4  11.07  .0732    0.000   202    7    100.0   10 
Email: AdamSPAM@StormwatchersRetreat.com (To send me email remove the word 'SPAM' from my email address.)